Time;durP1;ratioP1;P1;durP2;ratioP2;P2;SDS_P1;SDS_P2;PMS_P1;PMS_P2;Temp;Humidity;BMP_temperature;BMP_pressure;BME280_temperature;BME280_humidity;BME280_pressure;Samples;Min_cycle;Max_cycle;Signal;HPM_P1;HPM_P2
2023/06/01 00:01:45;;;;;;;2.03;1.83;;;14.50;66.90;;;;;;5119530;28;20986;-71
2023/06/01 00:04:13;;;;;;;4.53;2.80;;;14.50;68.60;;;;;;5108021;28;21211;-71
2023/06/01 00:06:41;;;;;;;2.73;2.53;;;14.50;70.00;;;;;;5115843;28;20656;-71
2023/06/01 00:09:08;;;;;;;2.37;2.23;;;14.50;71.30;;;;;;5117967;28;20634;-71
2023/06/01 00:11:35;;;;;;;4.27;2.57;;;14.50;69.90;;;;;;5119764;28;20654;-71
2023/06/01 00:14:01;;;;;;;2.77;2.57;;;14.30;70.60;;;;;;5119169;28;20615;-71
2023/06/01 00:16:30;;;;;;;4.10;1.77;;;14.40;69.30;;;;;;5116060;28;20666;-71
2023/06/01 00:19:00;;;;;;;1.77;1.67;;;14.30;69.80;;;;;;5115738;28;20639;-72
2023/06/01 00:21:27;;;;;;;5.77;2.53;;;14.30;69.90;;;;;;5119403;27;20674;-71
2023/06/01 00:23:55;;;;;;;2.43;2.20;;;14.30;69.80;;;;;;5119763;27;21224;-71
2023/06/01 00:26:22;;;;;;;4.40;2.90;;;14.40;69.20;;;;;;5109125;28;21236;-71
2023/06/01 00:28:49;;;;;;;3.90;2.30;;;14.30;70.20;;;;;;5112013;28;21141;-71
2023/06/01 00:31:16;;;;;;;2.43;1.93;;;14.40;69.40;;;;;;5117976;28;20655;-71
2023/06/01 00:33:43;;;;;;;2.70;2.50;;;14.40;68.80;;;;;;5114757;28;20618;-71
2023/06/01 00:36:10;;;;;;;2.10;1.93;;;14.40;71.40;;;;;;5116064;28;20682;-71
2023/06/01 00:38:36;;;;;;;2.90;2.60;;;14.30;69.30;;;;;;5118213;28;20666;-71
2023/06/01 00:41:05;;;;;;;2.63;2.43;;;14.30;71.50;;;;;;5117297;28;20655;-71
2023/06/01 00:43:31;;;;;;;2.27;2.07;;;14.20;70.70;;;;;;5116405;28;20629;-71
2023/06/01 00:45:58;;;;;;;3.90;2.60;;;14.20;70.60;;;;;;5119228;28;21255;-71
2023/06/01 00:48:25;;;;;;;2.40;2.17;;;14.10;69.00;;;;;;5119154;27;21167;-71
2023/06/01 00:50:53;;;;;;;2.37;1.87;;;14.00;68.60;;;;;;5116303;28;20648;-71
2023/06/01 00:53:21;;;;;;;2.50;2.03;;;14.00;68.00;;;;;;5116215;27;20989;-71
2023/06/01 00:55:48;;;;;;;2.00;1.80;;;13.90;68.60;;;;;;5121203;27;20648;-71
2023/06/01 00:58:16;;;;;;;2.60;1.67;;;13.80;68.60;;;;;;5123290;27;20963;-71
2023/06/01 01:00:43;;;;;;;2.00;1.77;;;13.80;69.00;;;;;;5118335;27;20649;-71
2023/06/01 01:03:13;;;;;;;2.63;2.30;;;13.70;67.70;;;;;;5111292;27;20739;-71
2023/06/01 01:05:41;;;;;;;2.43;2.10;;;13.60;66.60;;;;;;5118448;27;20640;-71
2023/06/01 01:08:14;;;;;;;2.63;2.43;;;13.60;65.60;;;;;;5121462;27;21198;-71
2023/06/01 01:10:47;;;;;;;2.00;1.80;;;13.60;65.90;;;;;;5122419;27;20649;-71
2023/06/01 01:13:19;;;;;;;3.20;3.00;;;13.50;66.60;;;;;;5120317;27;20623;-71
2023/06/01 01:15:54;;;;;;;2.23;2.03;;;13.60;66.40;;;;;;5119671;27;20647;-71
2023/06/01 01:18:32;;;;;;;2.67;2.47;;;13.70;66.20;;;;;;5121983;27;20644;-71
2023/06/01 01:21:21;;;;;;;2.53;2.27;;;13.70;65.50;;;;;;5122123;27;20696;-71
2023/06/01 01:24:23;;;;;;;2.00;1.80;;;13.60;66.10;;;;;;5112684;27;20740;-71
2023/06/01 01:27:05;;;;;;;1.93;1.83;;;13.60;65.80;;;;;;5113367;27;21258;-71
2023/06/01 01:29:35;;;;;;;1.67;1.57;;;13.50;66.40;;;;;;5121274;27;20628;-71
2023/06/01 01:32:04;;;;;;;2.50;2.30;;;13.50;66.30;;;;;;5121826;27;20658;-71
2023/06/01 01:34:32;;;;;;;1.63;1.53;;;13.50;66.60;;;;;;5118995;27;20622;-71
2023/06/01 01:37:00;;;;;;;2.20;2.00;;;13.40;67.60;;;;;;5119207;27;20670;-72
2023/06/01 01:39:27;;;;;;;1.80;1.70;;;13.40;67.00;;;;;;5118777;27;20650;-71
2023/06/01 01:41:54;;;;;;;2.03;1.83;;;13.40;66.70;;;;;;5122402;27;21138;-71
2023/06/01 01:44:22;;;;;;;1.97;1.80;;;13.30;66.60;;;;;;5121977;27;21009;-71
2023/06/01 01:46:58;;;;;;;2.10;1.87;;;13.30;66.90;;;;;;5119550;27;20989;-71
2023/06/01 01:49:29;;;;;;;5.13;1.93;;;13.20;67.30;;;;;;5118206;27;20722;-71
2023/06/01 01:52:07;;;;;;;2.70;1.90;;;13.20;67.30;;;;;;5121893;27;20678;-71
2023/06/01 01:54:38;;;;;;;3.10;2.20;;;13.10;67.10;;;;;;5121945;27;20978;-71
2023/06/01 01:57:08;;;;;;;2.07;1.97;;;13.10;67.70;;;;;;5118478;27;21218;-71
2023/06/01 01:59:37;;;;;;;2.63;1.87;;;13.10;68.40;;;;;;5122683;27;20729;-71
2023/06/01 02:02:06;;;;;;;3.23;2.07;;;13.00;69.00;;;;;;5119414;27;21073;-71
2023/06/01 02:04:38;;;;;;;2.20;2.00;;;13.00;67.70;;;;;;5118561;27;20625;-71
2023/06/01 02:07:05;;;;;;;2.10;1.90;;;12.90;67.90;;;;;;5120290;27;20639;-71
2023/06/01 02:09:33;;;;;;;2.60;2.37;;;13.00;69.40;;;;;;5120433;27;20630;-71
2023/06/01 02:12:01;;;;;;;1.50;1.40;;;13.00;69.40;;;;;;5121023;27;21026;-71
2023/06/01 02:14:29;;;;;;;2.80;2.10;;;13.10;69.60;;;;;;5118279;27;20635;-71
2023/06/01 02:16:57;;;;;;;1.87;1.77;;;13.20;69.20;;;;;;5118375;27;20777;-71
2023/06/01 02:19:25;;;;;;;2.17;1.70;;;13.20;69.90;;;;;;5121033;27;20695;-71
2023/06/01 02:21:52;;;;;;;1.73;1.63;;;13.20;71.20;;;;;;5121520;27;20657;-71
2023/06/01 02:24:19;;;;;;;2.00;1.83;;;13.10;72.70;;;;;;5119256;27;20621;-71
2023/06/01 02:26:48;;;;;;;2.60;2.10;;;13.00;73.20;;;;;;5118425;27;20642;-71
2023/06/01 02:29:15;;;;;;;1.97;1.60;;;12.80;71.50;;;;;;5117694;27;21277;-71
2023/06/01 02:31:42;;;;;;;2.37;2.13;;;12.70;73.00;;;;;;5120942;27;20654;-71
2023/06/01 02:34:09;;;;;;;2.80;2.60;;;12.70;72.90;;;;;;5120459;27;20626;-71
2023/06/01 02:36:37;;;;;;;1.80;1.70;;;12.80;72.40;;;;;;5118037;27;20660;-71
2023/06/01 02:39:06;;;;;;;2.17;1.60;;;12.90;70.60;;;;;;5117905;27;21039;-71
2023/06/01 02:41:33;;;;;;;2.00;1.77;;;12.90;71.80;;;;;;5118676;27;20707;-71
2023/06/01 02:43:59;;;;;;;2.60;1.73;;;12.90;70.40;;;;;;5121252;27;21113;-71
2023/06/01 02:46:27;;;;;;;2.80;2.50;;;12.80;72.10;;;;;;5120868;27;20656;-71
2023/06/01 02:48:55;;;;;;;2.27;2.10;;;12.80;72.40;;;;;;5117492;27;20985;-71
2023/06/01 02:51:22;;;;;;;2.70;2.50;;;12.80;73.50;;;;;;5117558;27;20654;-71
2023/06/01 02:53:53;;;;;;;2.50;2.30;;;12.80;71.20;;;;;;5119476;27;20753;-71
2023/06/01 02:56:21;;;;;;;5.03;2.70;;;12.70;72.40;;;;;;5120749;27;21224;-71
2023/06/01 02:58:48;;;;;;;2.20;1.77;;;12.50;72.30;;;;;;5116900;27;20616;-71
2023/06/01 03:01:15;;;;;;;2.17;1.87;;;12.40;73.70;;;;;;5120562;27;20644;-71
2023/06/01 03:03:44;;;;;;;3.60;1.53;;;12.40;73.40;;;;;;5120233;27;20632;-71
2023/06/01 03:06:13;;;;;;;2.77;2.57;;;12.40;73.50;;;;;;5117732;27;21200;-71
2023/06/01 03:08:40;;;;;;;2.07;1.87;;;12.30;74.00;;;;;;5117383;27;21275;-71
2023/06/01 03:11:09;;;;;;;2.80;1.97;;;12.30;74.70;;;;;;5118471;27;20666;-71
2023/06/01 03:13:36;;;;;;;2.17;1.97;;;12.40;74.10;;;;;;5120231;27;20622;-71
2023/06/01 03:16:05;;;;;;;3.13;1.93;;;12.50;73.90;;;;;;5120295;27;20642;-71
2023/06/01 03:18:33;;;;;;;1.70;1.60;;;12.40;73.50;;;;;;5116815;27;20661;-71
2023/06/01 03:20:59;;;;;;;1.83;1.50;;;12.50;73.60;;;;;;5116800;27;20650;-71
2023/06/01 03:23:28;;;;;;;3.10;2.17;;;12.50;73.50;;;;;;5119935;27;20616;-71
2023/06/01 03:25:56;;;;;;;2.20;2.00;;;12.50;73.80;;;;;;5120396;27;20983;-71
2023/06/01 03:28:26;;;;;;;1.77;1.67;;;12.40;74.20;;;;;;5119238;27;20984;-71
2023/06/01 03:30:54;;;;;;;3.47;2.53;;;12.40;74.90;;;;;;5115179;27;20666;-71
2023/06/01 03:33:21;;;;;;;3.00;2.03;;;12.30;75.40;;;;;;5117554;27;20651;-71
2023/06/01 03:35:49;;;;;;;1.67;1.57;;;12.40;76.60;;;;;;5119190;27;20641;-72
2023/06/01 03:38:16;;;;;;;2.63;2.43;;;12.40;77.40;;;;;;5120099;27;20663;-72
2023/06/01 03:40:43;;;;;;;2.77;2.57;;;12.40;77.60;;;;;;5116678;27;21221;-71
2023/06/01 03:43:11;;;;;;;1.60;1.50;;;12.40;77.90;;;;;;5116821;27;21261;-71
2023/06/01 03:45:39;;;;;;;2.07;1.87;;;12.40;77.50;;;;;;5117515;27;20663;-71
2023/06/01 03:48:06;;;;;;;1.73;1.60;;;12.40;76.50;;;;;;5120479;27;21030;-71
2023/06/01 03:50:33;;;;;;;1.80;1.50;;;12.30;74.80;;;;;;5119239;27;21248;-71
2023/06/01 03:53:00;;;;;;;2.13;1.60;;;12.50;74.30;;;;;;5116727;27;20637;-71
2023/06/01 03:55:27;;;;;;;2.07;1.83;;;12.50;72.70;;;;;;5116364;27;20706;-71
2023/06/01 03:57:54;;;;;;;3.63;2.10;;;12.50;71.90;;;;;;5117357;27;20662;-71
2023/06/01 04:00:22;;;;;;;1.93;1.60;;;12.50;72.00;;;;;;5119427;28;21205;-71
2023/06/01 04:02:53;;;;;;;1.93;1.80;;;12.50;72.50;;;;;;5116716;28;20620;-71
2023/06/01 04:05:20;;;;;;;2.30;1.90;;;12.50;73.50;;;;;;5119742;28;20690;-71
2023/06/01 04:07:48;;;;;;;2.97;2.30;;;12.50;74.10;;;;;;5119434;28;20626;-71
2023/06/01 04:10:16;;;;;;;2.07;1.73;;;12.50;74.10;;;;;;5115631;28;20623;-71
2023/06/01 04:12:43;;;;;;;1.80;1.70;;;12.50;75.20;;;;;;5116557;28;20620;-71
2023/06/01 04:15:11;;;;;;;2.10;1.77;;;12.50;74.40;;;;;;5117903;28;20628;-71
2023/06/01 04:17:39;;;;;;;2.30;2.07;;;12.60;73.60;;;;;;5119663;28;20719;-71
2023/06/01 04:20:11;;;;;;;3.30;2.80;;;12.70;75.60;;;;;;5119033;27;20623;-71
2023/06/01 04:22:38;;;;;;;2.27;2.07;;;12.70;74.50;;;;;;5108463;28;20618;-71
2023/06/01 04:25:08;;;;;;;2.77;2.47;;;12.70;74.50;;;;;;5115740;28;20625;-71
2023/06/01 04:27:36;;;;;;;2.00;1.80;;;12.70;74.00;;;;;;5119336;28;20674;-71
2023/06/01 04:30:07;;;;;;;4.57;1.90;;;12.80;73.60;;;;;;5122262;27;20974;-71
2023/06/01 04:32:34;;;;;;;3.17;2.00;;;12.90;73.90;;;;;;5121103;27;20669;-71
2023/06/01 04:35:04;;;;;;;2.30;2.10;;;13.00;74.70;;;;;;5119196;27;20965;-71
2023/06/01 04:37:33;;;;;;;2.07;1.80;;;12.90;74.70;;;;;;5120472;27;20768;-71
2023/06/01 04:40:00;;;;;;;2.43;2.23;;;12.90;74.60;;;;;;5122795;27;20713;-71
2023/06/01 04:42:29;;;;;;;1.30;1.30;;;13.00;74.10;;;;;;5123387;27;20655;-71
2023/06/01 04:44:58;;;;;;;4.70;1.77;;;13.00;74.00;;;;;;5099593;27;21191;-71
2023/06/01 04:47:25;;;;;;;2.63;1.90;;;13.10;74.20;;;;;;5105561;28;20749;-72
2023/06/01 04:49:51;;;;;;;2.03;1.87;;;13.20;73.60;;;;;;5108217;27;20633;-72
2023/06/01 04:52:19;;;;;;;1.70;1.60;;;13.30;73.30;;;;;;5109011;27;20736;-72
2023/06/01 04:54:47;;;;;;;1.63;1.33;;;13.40;71.70;;;;;;5101421;28;20667;-71
2023/06/01 04:57:14;;;;;;;1.93;1.43;;;13.40;71.60;;;;;;5110610;28;20764;-73
2023/06/01 04:59:41;;;;;;;2.50;2.00;;;13.50;71.50;;;;;;5123349;27;20623;-72
2023/06/01 05:02:08;;;;;;;1.67;1.37;;;13.70;71.30;;;;;;5120195;27;21017;-72
2023/06/01 05:04:36;;;;;;;1.33;1.23;;;13.80;69.80;;;;;;5117537;27;20637;-72
2023/06/01 05:07:03;;;;;;;4.00;2.20;;;13.90;70.80;;;;;;5121374;27;21243;-71
2023/06/01 05:09:29;;;;;;;1.50;1.40;;;13.90;71.60;;;;;;5121968;27;21217;-72
2023/06/01 05:11:57;;;;;;;2.00;1.80;;;13.90;71.10;;;;;;5122760;27;20652;-72
2023/06/01 05:14:24;;;;;;;2.83;2.07;;;14.00;71.50;;;;;;5111429;27;20621;-72
2023/06/01 05:16:51;;;;;;;2.13;1.93;;;14.00;71.50;;;;;;5119854;27;20636;-72
2023/06/01 05:19:18;;;;;;;1.93;1.83;;;14.20;69.50;;;;;;5120835;27;20692;-72
2023/06/01 05:21:44;;;;;;;3.00;2.03;;;14.30;71.10;;;;;;5122686;27;20651;-72
2023/06/01 05:24:11;;;;;;;1.47;1.37;;;14.40;70.50;;;;;;5122472;27;20651;-71
2023/06/01 05:26:38;;;;;;;2.33;2.13;;;14.50;68.70;;;;;;5119371;27;20643;-72
2023/06/01 05:29:06;;;;;;;2.10;1.73;;;14.60;68.10;;;;;;5118997;27;20740;-72
2023/06/01 05:31:33;;;;;;;1.63;1.53;;;14.70;67.20;;;;;;5120637;27;20670;-72
2023/06/01 05:34:00;;;;;;;1.57;1.27;;;14.80;67.70;;;;;;5122819;27;20750;-72
2023/06/01 05:36:27;;;;;;;1.70;1.60;;;14.80;67.50;;;;;;5122184;27;20647;-72
2023/06/01 05:38:54;;;;;;;2.00;1.90;;;14.90;68.10;;;;;;5118245;27;20658;-71
2023/06/01 05:41:20;;;;;;;1.37;1.27;;;15.00;67.70;;;;;;5117641;27;20645;-72
2023/06/01 05:43:47;;;;;;;2.53;2.43;;;15.10;67.70;;;;;;5121532;27;21148;-72
2023/06/01 05:46:15;;;;;;;2.37;1.60;;;15.20;67.60;;;;;;5121934;27;21074;-72
2023/06/01 05:48:42;;;;;;;2.67;2.47;;;15.30;67.70;;;;;;5121528;27;20654;-72
2023/06/01 05:51:09;;;;;;;1.70;1.60;;;15.40;67.10;;;;;;5118934;27;20641;-71
2023/06/01 05:53:35;;;;;;;2.63;1.87;;;15.40;67.30;;;;;;5118709;27;20621;-72
2023/06/01 05:56:02;;;;;;;2.40;1.60;;;15.50;67.70;;;;;;5121526;27;20646;-72
2023/06/01 05:58:29;;;;;;;1.50;1.40;;;15.60;67.60;;;;;;5121064;27;20658;-72
2023/06/01 06:00:56;;;;;;;1.73;1.63;;;15.70;68.10;;;;;;5118855;27;20730;-72
2023/06/01 06:03:24;;;;;;;2.03;1.80;;;15.80;68.50;;;;;;5120985;27;20684;-72
2023/06/01 06:05:51;;;;;;;1.67;1.57;;;15.90;68.60;;;;;;5122046;27;20657;-71
2023/06/01 06:08:18;;;;;;;2.30;2.10;;;16.00;67.20;;;;;;5109856;27;20827;-72
2023/06/01 06:10:44;;;;;;;1.73;1.60;;;16.10;63.50;;;;;;5117851;27;20681;-72
2023/06/01 06:13:12;;;;;;;2.57;1.77;;;16.20;63.40;;;;;;5119878;27;20672;-72
2023/06/01 06:15:38;;;;;;;2.97;2.27;;;16.20;62.50;;;;;;5121539;27;20653;-72
2023/06/01 06:18:05;;;;;;;3.17;1.60;;;16.30;63.20;;;;;;5122029;27;20669;-72
2023/06/01 06:20:33;;;;;;;1.77;1.67;;;16.30;63.60;;;;;;5109141;27;20646;-72
2023/06/01 06:23:00;;;;;;;2.13;1.60;;;16.40;62.80;;;;;;5118463;27;20662;-72
2023/06/01 06:25:27;;;;;;;2.00;1.73;;;16.40;62.30;;;;;;5119450;27;20665;-72
2023/06/01 06:27:54;;;;;;;1.70;1.60;;;16.50;62.30;;;;;;5120978;27;20618;-72
2023/06/01 06:30:20;;;;;;;2.60;1.97;;;16.60;61.90;;;;;;5120392;27;20639;-72
2023/06/01 06:32:47;;;;;;;3.40;3.10;;;16.90;61.60;;;;;;5117939;27;20639;-72
2023/06/01 06:35:14;;;;;;;2.30;2.10;;;16.80;60.10;;;;;;5117842;27;20632;-72
2023/06/01 06:37:43;;;;;;;2.17;1.90;;;16.80;61.30;;;;;;5120284;27;21100;-72
2023/06/01 06:40:11;;;;;;;2.57;2.37;;;16.80;61.60;;;;;;5120078;27;20637;-72
2023/06/01 06:42:37;;;;;;;1.80;1.70;;;16.90;60.60;;;;;;5119512;27;20632;-72
2023/06/01 06:45:05;;;;;;;1.87;1.77;;;16.90;61.20;;;;;;5118251;27;20633;-72
2023/06/01 06:47:32;;;;;;;5.20;2.40;;;16.90;61.40;;;;;;5117668;27;20631;-72
2023/06/01 06:49:59;;;;;;;2.03;1.93;;;17.10;62.00;;;;;;5120415;27;20614;-72
2023/06/01 06:52:26;;;;;;;1.67;1.57;;;17.20;61.40;;;;;;5121231;27;20653;-71
2023/06/01 06:54:54;;;;;;;2.10;1.90;;;17.30;62.20;;;;;;5119126;27;20626;-71
2023/06/01 06:57:21;;;;;;;2.07;1.97;;;17.30;61.80;;;;;;5116921;27;20654;-71
2023/06/01 06:59:47;;;;;;;3.53;2.40;;;17.40;61.80;;;;;;5121649;27;21265;-71
2023/06/01 07:02:14;;;;;;;2.13;1.93;;;17.50;61.50;;;;;;5117544;27;20662;-72
2023/06/01 07:04:41;;;;;;;2.40;2.20;;;17.50;61.60;;;;;;5116510;27;20624;-72
2023/06/01 07:07:08;;;;;;;2.17;2.03;;;17.60;61.10;;;;;;5119680;27;20759;-72
2023/06/01 07:09:35;;;;;;;1.90;1.80;;;17.70;61.20;;;;;;5119378;27;20613;-71
2023/06/01 07:12:03;;;;;;;2.20;2.00;;;17.70;60.60;;;;;;5119985;27;20657;-72
2023/06/01 07:14:30;;;;;;;2.30;1.87;;;17.80;61.00;;;;;;5117221;27;20621;-72
2023/06/01 07:16:57;;;;;;;2.63;2.10;;;18.00;60.30;;;;;;5117385;27;20652;-72
2023/06/01 07:19:23;;;;;;;2.17;1.97;;;18.20;60.00;;;;;;5119281;27;20662;-72
2023/06/01 07:21:50;;;;;;;2.20;2.00;;;18.30;58.90;;;;;;5120191;27;20697;-72
2023/06/01 07:24:20;;;;;;;2.80;2.47;;;18.40;59.30;;;;;;5119111;27;20995;-72
2023/06/01 07:26:46;;;;;;;3.70;2.73;;;18.50;59.30;;;;;;5117156;27;20968;-71
2023/06/01 07:29:14;;;;;;;2.80;2.60;;;18.40;59.00;;;;;;5116381;27;21208;-71
2023/06/01 07:31:41;;;;;;;2.70;2.50;;;18.50;60.00;;;;;;5117031;27;20664;-71
2023/06/01 07:34:08;;;;;;;2.80;2.37;;;18.70;59.50;;;;;;5117000;27;20631;-72
2023/06/01 07:36:36;;;;;;;2.17;2.00;;;18.80;58.90;;;;;;5118303;27;20652;-72
2023/06/01 07:39:05;;;;;;;2.53;2.30;;;19.10;58.50;;;;;;5119449;27;21326;-72
2023/06/01 07:41:33;;;;;;;2.43;2.23;;;19.20;58.80;;;;;;5114958;27;20647;-72
2023/06/01 07:44:00;;;;;;;3.00;2.53;;;19.10;58.70;;;;;;5119966;27;20867;-72
2023/06/01 07:46:28;;;;;;;2.93;2.40;;;19.10;57.70;;;;;;5119843;27;20647;-72
2023/06/01 07:48:55;;;;;;;2.40;2.20;;;19.10;58.40;;;;;;5116653;27;21399;-72
2023/06/01 07:51:22;;;;;;;3.30;2.83;;;19.60;59.20;;;;;;5115912;27;21185;-72
2023/06/01 07:53:49;;;;;;;3.30;2.87;;;19.70;58.80;;;;;;5117787;27;20626;-71
2023/06/01 07:56:16;;;;;;;3.03;2.83;;;19.90;58.70;;;;;;5119862;27;20627;-71
2023/06/01 07:58:44;;;;;;;3.70;2.27;;;19.70;57.90;;;;;;5116562;27;20678;-71
2023/06/01 08:01:11;;;;;;;2.70;2.50;;;19.90;58.90;;;;;;5107653;27;20652;-71
2023/06/01 08:03:43;;;;;;;2.77;2.53;;;20.00;58.30;;;;;;5114590;27;20628;-71
2023/06/01 08:06:11;;;;;;;2.60;2.40;;;20.00;57.10;;;;;;5119108;28;20648;-71
2023/06/01 08:08:38;;;;;;;3.10;2.87;;;20.10;57.60;;;;;;5120154;28;20691;-72
2023/06/01 08:11:05;;;;;;;2.30;2.10;;;20.20;57.50;;;;;;5117914;28;20650;-72
2023/06/01 08:13:35;;;;;;;3.40;3.10;;;20.00;56.00;;;;;;5116287;28;20619;-72
2023/06/01 08:16:02;;;;;;;3.10;2.70;;;20.00;56.60;;;;;;5116517;28;20655;-72
2023/06/01 08:18:29;;;;;;;4.47;3.03;;;20.10;56.70;;;;;;5119336;28;20654;-71
2023/06/01 08:21:00;;;;;;;2.30;2.10;;;20.30;57.40;;;;;;5119334;28;20696;-71
2023/06/01 08:23:27;;;;;;;2.90;2.40;;;20.30;56.60;;;;;;5117374;28;20637;-71
2023/06/01 08:25:53;;;;;;;2.50;2.30;;;20.20;55.90;;;;;;5116545;27;21005;-71
2023/06/01 08:28:20;;;;;;;6.13;2.57;;;20.60;57.00;;;;;;5116822;28;20666;-71
2023/06/01 08:30:47;;;;;;;2.67;2.47;;;20.70;56.90;;;;;;5118051;27;20662;-72
2023/06/01 08:33:15;;;;;;;2.80;2.60;;;20.70;55.30;;;;;;5119435;28;20619;-71
2023/06/01 08:35:41;;;;;;;3.23;2.73;;;21.00;56.10;;;;;;5116771;27;20684;-71
2023/06/01 08:38:10;;;;;;;3.50;2.47;;;21.30;56.70;;;;;;5116451;28;20620;-71
2023/06/01 08:40:37;;;;;;;2.83;2.60;;;21.10;55.50;;;;;;5116990;28;20648;-71
2023/06/01 08:43:10;;;;;;;3.40;2.73;;;21.20;55.80;;;;;;5117798;28;20951;-71
2023/06/01 08:45:38;;;;;;;3.63;3.27;;;21.40;55.80;;;;;;5116373;28;20700;-71
2023/06/01 08:48:08;;;;;;;4.67;3.00;;;21.30;54.90;;;;;;5119409;28;20615;-71
2023/06/01 08:50:35;;;;;;;5.60;2.20;;;21.40;56.30;;;;;;5119190;27;20657;-71
2023/06/01 08:53:04;;;;;;;2.83;2.53;;;21.70;56.10;;;;;;5107717;28;20623;-71
2023/06/01 08:55:32;;;;;;;4.20;3.23;;;21.90;55.70;;;;;;5115797;28;20648;-72
2023/06/01 08:57:59;;;;;;;2.47;2.27;;;21.70;55.20;;;;;;5117569;28;20621;-71
2023/06/01 09:00:27;;;;;;;3.20;2.80;;;21.80;55.60;;;;;;5118027;28;20844;-71
2023/06/01 09:02:54;;;;;;;5.37;3.43;;;21.80;55.50;;;;;;5116200;28;21196;-72
2023/06/01 09:05:21;;;;;;;3.70;3.40;;;21.90;54.60;;;;;;5119148;28;20718;-71
2023/06/01 09:07:49;;;;;;;3.80;2.83;;;21.80;54.50;;;;;;5119585;28;20619;-71
2023/06/01 09:10:20;;;;;;;4.27;3.23;;;22.00;54.90;;;;;;5115106;28;20616;-72
2023/06/01 09:12:53;;;;;;;5.93;2.80;;;22.20;55.20;;;;;;5116392;28;20620;-71
2023/06/01 09:15:22;;;;;;;2.90;2.70;;;22.40;54.30;;;;;;5119933;27;21022;-71
2023/06/01 09:17:50;;;;;;;3.70;2.90;;;22.40;53.90;;;;;;5123291;27;20625;-72
2023/06/01 09:20:24;;;;;;;4.13;3.10;;;22.50;55.00;;;;;;5119857;27;20663;-71
2023/06/01 09:22:51;;;;;;;3.30;2.50;;;22.40;53.20;;;;;;5119153;27;21029;-72
2023/06/01 09:25:17;;;;;;;2.70;2.50;;;22.50;54.50;;;;;;5120652;27;20711;-72
2023/06/01 09:27:46;;;;;;;3.17;2.90;;;22.70;54.30;;;;;;5123289;27;20625;-71
2023/06/01 09:30:16;;;;;;;3.03;2.73;;;22.90;54.50;;;;;;5121796;27;20734;-72
2023/06/01 09:32:44;;;;;;;3.80;3.50;;;23.00;54.00;;;;;;5111071;27;21124;-72
2023/06/01 09:35:11;;;;;;;3.20;2.90;;;23.20;53.60;;;;;;5119411;27;20616;-72
2023/06/01 09:37:39;;;;;;;4.20;2.90;;;23.50;53.90;;;;;;5120955;27;20620;-72
2023/06/01 09:40:18;;;;;;;2.63;2.43;;;23.70;53.10;;;;;;5121666;27;20667;-72
2023/06/01 09:42:49;;;;;;;4.40;4.00;;;23.70;52.70;;;;;;5119679;27;21198;-72
2023/06/01 09:45:20;;;;;;;3.80;3.50;;;23.70;52.30;;;;;;5119137;27;20624;-72
2023/06/01 09:47:47;;;;;;;3.87;3.47;;;23.50;52.60;;;;;;5120592;27;20626;-72
2023/06/01 09:50:34;;;;;;;2.87;2.67;;;23.90;52.00;;;;;;5121786;27;21178;-72
2023/06/01 09:53:01;;;;;;;4.97;3.73;;;24.10;52.90;;;;;;5110373;27;20659;-72
2023/06/01 09:55:29;;;;;;;4.53;3.43;;;24.30;52.00;;;;;;5118587;27;21228;-72
2023/06/01 09:58:18;;;;;;;3.50;3.10;;;24.20;52.10;;;;;;5121106;27;20655;-72
2023/06/01 10:00:48;;;;;;;2.70;2.50;;;24.40;51.90;;;;;;5118184;27;20671;-72
2023/06/01 10:03:15;;;;;;;4.10;3.37;;;24.70;51.90;;;;;;5110015;27;20627;-72
2023/06/01 10:05:43;;;;;;;4.37;3.90;;;24.90;49.90;;;;;;5118555;27;20735;-72
2023/06/01 10:08:12;;;;;;;3.70;3.40;;;24.90;51.00;;;;;;5120903;27;20616;-72
2023/06/01 10:10:39;;;;;;;3.17;2.90;;;24.80;50.70;;;;;;5120638;27;20707;-72
2023/06/01 10:13:06;;;;;;;3.80;3.33;;;24.90;51.50;;;;;;5120079;27;21175;-72
2023/06/01 10:15:33;;;;;;;3.30;3.00;;;25.10;51.00;;;;;;5118572;27;20990;-72
2023/06/01 10:18:02;;;;;;;3.77;3.40;;;25.10;50.40;;;;;;5118470;27;20646;-72
2023/06/01 10:20:30;;;;;;;3.60;3.17;;;25.40;50.30;;;;;;5120965;27;20700;-72
2023/06/01 10:22:57;;;;;;;3.27;2.97;;;25.70;49.70;;;;;;5121574;27;20659;-72
2023/06/01 10:25:25;;;;;;;3.30;3.00;;;25.70;48.10;;;;;;5119246;27;20647;-72
2023/06/01 10:27:57;;;;;;;3.77;3.40;;;25.80;49.00;;;;;;5117980;27;20608;-72
2023/06/01 10:30:24;;;;;;;4.03;2.80;;;25.90;50.10;;;;;;5118692;27;21214;-72
2023/06/01 10:32:53;;;;;;;3.47;3.27;;;26.00;49.40;;;;;;5121308;27;20639;-72
2023/06/01 10:35:54;;;;;;;3.43;3.13;;;25.90;49.40;;;;;;5120883;27;20626;-72
2023/06/01 10:38:25;;;;;;;4.27;3.20;;;25.80;49.50;;;;;;5026152;28;20674;-72
2023/06/01 10:40:53;;;;;;;2.77;2.57;;;26.00;48.70;;;;;;5093701;27;20767;-72
2023/06/01 10:43:42;;;;;;;3.40;3.10;;;26.00;48.60;;;;;;5117879;27;21283;-72
2023/06/01 10:46:37;;;;;;;3.80;3.50;;;26.30;47.60;;;;;;5110946;27;20628;-72
2023/06/01 10:49:05;;;;;;;4.00;3.33;;;26.70;46.70;;;;;;5110158;27;20747;-72
2023/06/01 10:51:33;;;;;;;3.50;3.20;;;26.90;46.40;;;;;;5117846;27;20640;-72
2023/06/01 10:54:26;;;;;;;4.17;3.10;;;26.90;47.50;;;;;;5118064;27;20620;-72
2023/06/01 10:57:23;;;;;;;3.20;3.00;;;26.90;46.70;;;;;;5119338;27;20651;-72
2023/06/01 11:00:12;;;;;;;3.60;3.13;;;26.80;45.30;;;;;;5110822;27;20679;-72
2023/06/01 11:02:56;;;;;;;4.17;3.77;;;27.00;46.20;;;;;;5112183;27;20632;-72
2023/06/01 11:05:46;;;;;;;6.17;3.87;;;27.10;44.50;;;;;;5109507;27;20646;-72
2023/06/01 11:08:46;;;;;;;3.63;3.33;;;26.90;44.90;;;;;;5120555;27;20810;-72
2023/06/01 11:11:14;;;;;;;5.00;2.93;;;26.70;46.40;;;;;;5102813;27;20660;-72
2023/06/01 11:13:41;;;;;;;3.27;2.93;;;27.20;45.50;;;;;;5117531;27;20629;-72
2023/06/01 11:16:31;;;;;;;3.30;2.93;;;27.50;44.60;;;;;;5118304;27;20657;-72
2023/06/01 11:18:59;;;;;;;3.20;2.90;;;27.70;43.90;;;;;;5120554;27;20622;-72
2023/06/01 11:21:27;;;;;;;3.50;3.20;;;28.00;45.80;;;;;;5117145;27;20647;-72
2023/06/01 11:23:55;;;;;;;3.83;3.53;;;28.20;44.70;;;;;;5116927;27;20626;-72
2023/06/01 11:26:25;;;;;;;2.70;2.50;;;28.30;44.00;;;;;;5118681;27;21248;-72
2023/06/01 11:28:53;;;;;;;3.27;2.97;;;28.30;45.20;;;;;;5120109;27;20633;-72
2023/06/01 11:31:21;;;;;;;3.37;2.73;;;28.40;43.70;;;;;;5119105;27;21579;-72
2023/06/01 11:33:53;;;;;;;3.90;3.60;;;28.80;43.00;;;;;;5117177;27;20626;-72
2023/06/01 11:36:24;;;;;;;3.87;3.57;;;29.00;43.30;;;;;;5116722;27;20748;-72
2023/06/01 11:38:52;;;;;;;3.83;3.53;;;28.70;43.00;;;;;;5108023;27;20633;-73
2023/06/01 11:41:22;;;;;;;5.73;4.30;;;29.00;42.90;;;;;;5116837;27;20685;-72
2023/06/01 11:43:56;;;;;;;3.70;3.40;;;29.50;43.10;;;;;;5120012;27;20627;-72
2023/06/01 11:46:24;;;;;;;3.30;3.10;;;29.90;44.30;;;;;;5120076;27;20643;-72
2023/06/01 11:49:04;;;;;;;3.97;3.60;;;29.70;42.80;;;;;;5116170;27;20636;-72
2023/06/01 11:51:32;;;;;;;4.70;4.17;;;30.20;42.70;;;;;;5116740;28;20721;-72
2023/06/01 11:54:01;;;;;;;3.17;2.90;;;30.50;41.60;;;;;;5119682;27;20710;-72
2023/06/01 11:56:31;;;;;;;3.33;3.13;;;31.10;41.20;;;;;;5120038;27;20750;-73
2023/06/01 11:59:01;;;;;;;5.93;4.00;;;32.00;40.30;;;;;;5116333;27;21172;-73
2023/06/01 12:01:28;;;;;;;3.60;3.30;;;32.30;38.10;;;;;;5120019;27;20639;-73
2023/06/01 12:03:56;;;;;;;3.83;3.47;;;32.70;36.90;;;;;;5117527;27;20621;-73
2023/06/01 12:06:24;;;;;;;3.33;3.13;;;33.10;35.90;;;;;;5116887;27;20648;-74
2023/06/01 12:08:52;;;;;;;3.33;3.07;;;33.50;35.40;;;;;;5116380;28;20975;-74
2023/06/01 12:11:21;;;;;;;4.53;3.40;;;33.90;35.60;;;;;;5108060;28;20651;-74
2023/06/01 12:13:49;;;;;;;3.50;3.03;;;34.50;37.70;;;;;;5116294;28;20190;-74
2023/06/01 12:16:17;;;;;;;3.00;2.80;;;34.90;35.30;;;;;;5119155;28;20254;-74
2023/06/01 12:18:44;;;;;;;3.60;3.30;;;35.30;34.20;;;;;;5119783;28;20281;-74
2023/06/01 12:21:12;;;;;;;3.20;3.00;;;35.40;33.70;;;;;;5118505;28;20262;-73
2023/06/01 12:23:41;;;;;;;3.27;2.97;;;34.70;36.10;;;;;;5116814;28;20280;-73
2023/06/01 12:26:08;;;;;;;3.20;3.00;;;34.60;33.80;;;;;;5116167;28;20236;-73
2023/06/01 12:28:52;;;;;;;3.53;3.23;;;33.30;34.90;;;;;;5116717;28;20681;-73
2023/06/01 12:31:21;;;;;;;3.40;3.10;;;33.80;35.90;;;;;;5114809;28;20707;-73
2023/06/01 12:33:49;;;;;;;3.10;2.90;;;34.70;36.10;;;;;;5119929;28;20205;-73
2023/06/01 12:36:32;;;;;;;3.22;2.95;;;35.20;33.80;;;;;;5119478;28;20252;-74
2023/06/01 12:39:01;;;;;;;3.45;3.25;;;35.70;33.40;;;;;;5109644;28;20193;-74
2023/06/01 12:41:28;;;;;;;3.17;2.97;;;35.90;32.80;;;;;;5116540;28;20313;-74
2023/06/01 12:43:56;;;;;;;3.50;3.20;;;35.80;33.50;;;;;;5119828;28;20186;-72
2023/06/01 12:46:26;;;;;;;3.47;3.17;;;35.90;32.90;;;;;;5119537;28;20213;-72
2023/06/01 12:48:54;;;;;;;3.42;3.15;;;35.30;34.80;;;;;;5115935;28;20206;-72
2023/06/01 12:51:22;;;;;;;3.45;3.15;;;35.70;32.70;;;;;;5119026;27;20510;-72
2023/06/01 12:53:49;;;;;;;4.25;3.78;;;35.90;32.60;;;;;;5122147;27;20208;-72
2023/06/01 12:56:16;;;;;;;3.20;3.00;;;35.90;32.10;;;;;;5123724;27;20225;-72
2023/06/01 12:58:43;;;;;;;3.53;2.97;;;36.20;31.80;;;;;;5120403;27;20201;-72